Time;durP1;ratioP1;P1;durP2;ratioP2;P2;SDS_P1;SDS_P2;PMS_P1;PMS_P2;Temp;Humidity;BMP_temperature;BMP_pressure;BME280_temperature;BME280_humidity;BME280_pressure;Samples;Min_cycle;Max_cycle;Signal;HPM_P1;HPM_P2
2022/11/25 00:01:17;;;;;;;23.60;16.40;;;6.00;99.90;;;;;;4841119;29;20503;-62
2022/11/25 00:03:46;;;;;;;30.87;16.10;;;5.90;99.90;;;;;;4841058;29;20326;-62
2022/11/25 00:06:16;;;;;;;27.07;17.17;;;5.90;99.90;;;;;;4841626;29;20491;-62
2022/11/25 00:08:46;;;;;;;23.27;16.67;;;5.90;99.90;;;;;;4841724;29;20662;-62
2022/11/25 00:11:14;;;;;;;29.00;16.77;;;5.90;99.90;;;;;;4844943;29;21033;-62
2022/11/25 00:13:45;;;;;;;26.83;16.43;;;5.90;99.90;;;;;;4844519;29;20480;-62
2022/11/25 00:16:15;;;;;;;25.63;17.20;;;5.90;99.90;;;;;;4844850;29;20536;-62
2022/11/25 00:18:44;;;;;;;30.57;17.07;;;5.90;99.90;;;;;;4844480;29;20568;-62
2022/11/25 00:21:14;;;;;;;29.27;16.73;;;5.90;99.90;;;;;;4844375;29;20911;-62
2022/11/25 00:23:42;;;;;;;26.73;17.17;;;5.90;99.90;;;;;;4844529;29;20241;-62
2022/11/25 00:26:12;;;;;;;25.23;15.73;;;5.90;99.90;;;;;;4844524;29;20234;-62
2022/11/25 00:28:43;;;;;;;23.63;15.40;;;5.80;99.90;;;;;;4844288;29;20245;-62
2022/11/25 00:31:13;;;;;;;25.03;15.23;;;5.80;99.90;;;;;;4843859;29;20479;-62
2022/11/25 00:33:42;;;;;;;26.30;15.03;;;5.80;99.90;;;;;;4844407;29;20971;-62
2022/11/25 00:36:16;;;;;;;31.50;16.90;;;5.80;99.90;;;;;;4837023;29;20238;-62
2022/11/25 00:38:44;;;;;;;21.03;14.30;;;5.80;99.90;;;;;;4844416;29;20485;-62
2022/11/25 00:46:54;;;;;;;23.17;14.33;;;5.70;99.90;;;;;;4797540;29;20497;-61
2022/11/25 00:49:22;;;;;;;27.50;14.93;;;5.80;99.90;;;;;;4825916;29;20473;-62
2022/11/25 00:51:50;;;;;;;23.07;14.13;;;5.80;99.90;;;;;;4843105;29;20464;-62
2022/11/25 00:54:18;;;;;;;22.20;13.60;;;5.70;99.90;;;;;;4844081;29;20575;-62
2022/11/25 00:56:46;;;;;;;23.43;13.37;;;5.70;99.90;;;;;;4844040;29;20227;-62
2022/11/25 00:59:15;;;;;;;21.57;14.03;;;5.70;99.90;;;;;;4844039;29;20599;-62
2022/11/25 01:01:43;;;;;;;26.93;13.67;;;5.70;99.90;;;;;;4843421;29;20246;-62
2022/11/25 01:04:11;;;;;;;21.37;13.33;;;5.70;99.90;;;;;;4839085;29;20471;-62
2022/11/25 01:06:40;;;;;;;24.43;13.93;;;5.70;99.90;;;;;;4857848;29;20242;-62
2022/11/25 01:09:08;;;;;;;23.27;13.17;;;5.70;99.90;;;;;;4842575;29;20478;-62
2022/11/25 01:11:39;;;;;;;21.60;13.07;;;5.70;99.90;;;;;;4843530;29;20973;-62
2022/11/25 01:14:09;;;;;;;27.10;13.33;;;5.60;99.90;;;;;;4843795;29;20559;-62
2022/11/25 01:16:38;;;;;;;19.53;12.20;;;5.60;99.90;;;;;;4843802;29;20971;-62
2022/11/25 01:19:07;;;;;;;23.93;13.83;;;5.60;99.90;;;;;;4843729;29;20469;-62
2022/11/25 01:21:35;;;;;;;22.63;12.63;;;5.60;99.90;;;;;;4841168;29;20861;-62
2022/11/25 01:24:05;;;;;;;21.07;12.73;;;5.60;99.90;;;;;;4843664;29;20242;-62
2022/11/25 01:26:35;;;;;;;22.27;13.30;;;5.60;99.90;;;;;;4843550;29;20475;-62
2022/11/25 01:29:06;;;;;;;23.23;12.77;;;5.60;99.90;;;;;;4857743;29;20522;-62
2022/11/25 01:31:35;;;;;;;22.67;13.17;;;5.60;99.90;;;;;;4842254;29;20246;-62
2022/11/25 01:34:07;;;;;;;22.70;12.87;;;5.60;99.90;;;;;;4843333;29;20483;-62
2022/11/25 01:36:35;;;;;;;23.53;12.83;;;5.50;99.90;;;;;;4842196;29;20480;-62
2022/11/25 01:39:04;;;;;;;22.23;13.73;;;5.50;99.90;;;;;;4843435;29;20828;-62
2022/11/25 01:41:34;;;;;;;24.37;13.23;;;5.50;99.90;;;;;;4843065;29;20476;-62
2022/11/25 01:44:07;;;;;;;25.03;14.37;;;5.50;99.90;;;;;;4843343;29;20491;-61
2022/11/25 01:46:46;;;;;;;26.30;14.70;;;5.50;99.90;;;;;;4842186;29;20472;-62
2022/11/25 01:49:19;;;;;;;25.30;13.07;;;5.50;99.90;;;;;;4843665;29;20256;-61
2022/11/25 01:51:51;;;;;;;22.47;12.97;;;5.50;99.90;;;;;;4843510;29;20479;-62
2022/11/25 01:54:23;;;;;;;22.57;14.57;;;5.50;99.90;;;;;;4843924;29;20485;-62
2022/11/25 01:56:57;;;;;;;19.10;12.97;;;5.50;99.90;;;;;;4843562;29;20832;-62
2022/11/25 01:59:26;;;;;;;21.50;13.43;;;5.40;99.90;;;;;;4857333;29;20479;-62
2022/11/25 02:01:54;;;;;;;29.00;13.30;;;5.40;99.90;;;;;;4842466;29;21023;-61
2022/11/25 02:04:28;;;;;;;23.07;13.10;;;5.40;99.90;;;;;;4843206;29;21033;-62
2022/11/25 02:07:01;;;;;;;27.93;13.93;;;5.40;99.90;;;;;;4857508;29;20484;-61
2022/11/25 02:09:31;;;;;;;21.17;13.47;;;5.40;99.90;;;;;;4842863;29;20498;-62
2022/11/25 02:12:00;;;;;;;23.73;13.43;;;5.40;99.90;;;;;;4841719;29;20818;-62
2022/11/25 02:14:29;;;;;;;20.30;13.00;;;5.40;99.90;;;;;;4842855;29;20818;-61
2022/11/25 02:17:01;;;;;;;22.77;13.57;;;5.40;99.90;;;;;;4842838;29;20479;-62
2022/11/25 02:19:42;;;;;;;23.07;13.23;;;5.40;99.90;;;;;;4842764;29;20957;-61
2022/11/25 02:22:12;;;;;;;19.97;12.27;;;5.40;99.90;;;;;;4835747;29;20487;-62
2022/11/25 02:24:44;;;;;;;28.50;13.80;;;5.40;99.90;;;;;;4842644;29;20959;-62
2022/11/25 02:27:15;;;;;;;23.07;12.90;;;5.40;99.90;;;;;;4857198;29;20484;-62
2022/11/25 02:29:44;;;;;;;24.07;12.30;;;5.40;99.90;;;;;;4842703;29;20471;-62
2022/11/25 02:32:12;;;;;;;24.30;12.80;;;5.40;99.90;;;;;;4841297;29;20238;-62
2022/11/25 02:34:47;;;;;;;21.03;11.77;;;5.40;99.90;;;;;;4838674;29;20223;-61
2022/11/25 02:37:17;;;;;;;19.60;11.17;;;5.40;99.90;;;;;;4831922;29;20990;-62
2022/11/25 02:39:47;;;;;;;22.17;11.57;;;5.40;99.90;;;;;;4841748;29;20231;-61
2022/11/25 02:42:20;;;;;;;20.10;11.43;;;5.40;99.90;;;;;;4841527;29;20485;-61
2022/11/25 02:44:49;;;;;;;20.87;12.70;;;5.40;99.90;;;;;;4841380;29;20483;-62
2022/11/25 02:47:17;;;;;;;18.23;11.20;;;5.40;99.90;;;;;;4842658;29;20480;-62
2022/11/25 02:49:45;;;;;;;21.27;11.67;;;5.40;99.90;;;;;;4840908;29;20530;-61
2022/11/25 02:52:13;;;;;;;18.13;11.63;;;5.30;99.90;;;;;;4841208;29;20475;-62
2022/11/25 02:54:42;;;;;;;17.83;11.63;;;5.30;99.90;;;;;;4842659;29;20499;-62
2022/11/25 02:57:10;;;;;;;19.53;11.23;;;5.30;99.90;;;;;;4842641;29;20236;-62
2022/11/25 02:59:39;;;;;;;20.07;11.13;;;5.30;99.90;;;;;;4856917;29;20476;-61
2022/11/25 03:02:07;;;;;;;20.07;12.13;;;5.30;99.90;;;;;;4848574;29;20724;-62
2022/11/25 03:04:35;;;;;;;18.97;11.50;;;5.30;99.90;;;;;;4842207;29;20502;-61
2022/11/25 03:07:04;;;;;;;17.83;11.43;;;5.30;99.90;;;;;;4841291;29;20750;-61
2022/11/25 03:09:32;;;;;;;23.23;11.33;;;5.30;99.90;;;;;;4842284;29;20243;-61
2022/11/25 03:14:54;;;;;;;20.27;11.20;;;5.20;99.90;;;;;;4838969;29;20484;-62
2022/11/25 03:17:22;;;;;;;21.97;11.40;;;5.20;99.90;;;;;;4841455;29;20623;-62
2022/11/25 03:19:50;;;;;;;16.30;10.73;;;5.20;99.90;;;;;;4841648;29;20486;-61
2022/11/25 03:22:18;;;;;;;21.47;10.93;;;5.20;99.90;;;;;;4850145;29;20554;-61
2022/11/25 03:24:46;;;;;;;21.43;10.40;;;5.10;99.90;;;;;;4843169;29;20232;-61
2022/11/25 03:27:14;;;;;;;17.30;10.70;;;5.20;99.90;;;;;;4843198;29;20542;-61
2022/11/25 03:29:42;;;;;;;18.90;10.80;;;5.10;99.90;;;;;;4841091;29;20492;-62
2022/11/25 03:32:12;;;;;;;21.07;10.40;;;5.10;99.90;;;;;;4834161;29;20507;-62
2022/11/25 03:34:41;;;;;;;19.87;10.90;;;5.10;99.90;;;;;;4838159;29;20840;-61
2022/11/25 03:37:09;;;;;;;17.33;10.23;;;5.10;99.90;;;;;;4839850;29;20480;-61
2022/11/25 03:39:38;;;;;;;16.17;9.90;;;5.10;99.90;;;;;;4842270;29;20479;-61
2022/11/25 03:42:07;;;;;;;21.43;10.33;;;5.10;99.90;;;;;;4842945;29;20574;-61
2022/11/25 03:44:35;;;;;;;16.03;9.83;;;5.10;99.90;;;;;;4845289;29;20735;-61
2022/11/25 03:47:04;;;;;;;18.37;9.57;;;5.10;99.90;;;;;;4847664;29;20547;-61
2022/11/25 03:49:34;;;;;;;19.50;10.10;;;5.10;99.90;;;;;;4846021;29;20528;-61
2022/11/25 03:52:02;;;;;;;19.03;10.20;;;5.10;99.90;;;;;;4845991;29;20566;-61
2022/11/25 03:54:31;;;;;;;19.80;10.47;;;5.10;99.90;;;;;;4860917;29;20491;-61
2022/11/25 03:57:12;;;;;;;17.30;9.33;;;5.10;99.90;;;;;;4845700;29;20483;-61
2022/11/25 03:59:40;;;;;;;20.23;10.20;;;5.10;99.90;;;;;;4846771;29;20464;-61
2022/11/25 04:02:09;;;;;;;15.30;9.27;;;5.10;99.90;;;;;;4844951;29;20479;-61
2022/11/25 04:04:38;;;;;;;17.53;9.53;;;5.10;99.90;;;;;;4844502;29;20483;-61
2022/11/25 04:07:08;;;;;;;20.10;10.17;;;5.10;99.90;;;;;;4844587;29;21000;-61
2022/11/25 04:09:36;;;;;;;18.73;10.33;;;5.10;99.90;;;;;;4843940;29;20579;-61
2022/11/25 04:14:58;;;;;;;23.07;10.20;;;5.20;99.90;;;;;;4843910;29;20483;-61
2022/11/25 04:17:27;;;;;;;15.40;9.40;;;5.20;99.90;;;;;;4858852;29;20521;-61
2022/11/25 04:19:56;;;;;;;19.33;9.17;;;5.10;99.90;;;;;;4843396;29;20840;-61
2022/11/25 04:22:24;;;;;;;17.40;9.23;;;5.20;99.90;;;;;;4844552;29;20484;-61
2022/11/25 04:24:53;;;;;;;18.67;9.40;;;5.10;99.90;;;;;;4843545;29;20815;-61
2022/11/25 04:27:25;;;;;;;20.17;10.37;;;5.10;99.90;;;;;;4836430;29;20490;-62
2022/11/25 04:29:54;;;;;;;17.33;9.03;;;5.10;99.90;;;;;;4826192;29;20533;-61
2022/11/25 04:32:22;;;;;;;16.43;10.20;;;5.10;99.90;;;;;;4842724;29;20493;-61
2022/11/25 04:34:50;;;;;;;18.33;10.27;;;5.10;99.90;;;;;;4844153;29;20471;-61
2022/11/25 04:37:20;;;;;;;14.03;8.87;;;5.10;99.90;;;;;;4858704;29;20486;-62
2022/11/25 04:39:49;;;;;;;16.87;9.17;;;5.10;99.90;;;;;;4843024;29;20563;-61
2022/11/25 04:42:33;;;;;;;16.80;9.27;;;5.20;99.90;;;;;;4842835;29;20491;-61
2022/11/25 04:45:06;;;;;;;15.93;9.27;;;5.20;99.90;;;;;;4842128;29;20488;-62
2022/11/25 04:47:50;;;;;;;18.57;8.87;;;5.20;99.90;;;;;;4839930;29;20477;-61
2022/11/25 04:50:21;;;;;;;18.43;9.63;;;5.30;99.90;;;;;;4837687;29;20508;-62
2022/11/25 04:52:57;;;;;;;20.73;9.47;;;5.30;99.90;;;;;;4842760;29;20486;-61
2022/11/25 04:55:25;;;;;;;16.00;8.43;;;5.30;99.90;;;;;;4842473;29;20490;-60
2022/11/25 04:57:53;;;;;;;16.37;9.67;;;5.30;99.90;;;;;;4843894;29;20474;-61
2022/11/25 05:00:21;;;;;;;16.63;8.87;;;5.40;99.90;;;;;;4842237;29;20936;-62
2022/11/25 05:02:49;;;;;;;15.97;7.80;;;5.40;99.90;;;;;;4842461;29;20475;-62
2022/11/25 05:05:20;;;;;;;14.70;8.60;;;5.40;99.90;;;;;;4842743;29;20852;-61
2022/11/25 05:07:49;;;;;;;15.50;8.70;;;5.40;99.90;;;;;;4842470;29;20563;-61
2022/11/25 05:10:21;;;;;;;15.93;9.33;;;5.40;99.90;;;;;;4842508;29;20506;-61
2022/11/25 05:12:50;;;;;;;12.77;8.80;;;5.40;99.90;;;;;;4842073;29;20482;-62
2022/11/25 05:15:21;;;;;;;17.20;9.90;;;5.40;99.90;;;;;;4842334;29;20477;-62
2022/11/25 05:17:49;;;;;;;19.27;8.93;;;5.40;99.90;;;;;;4843304;29;20821;-62
2022/11/25 05:20:27;;;;;;;18.20;8.60;;;5.40;99.90;;;;;;4841446;29;21003;-61
2022/11/25 05:22:55;;;;;;;14.43;8.33;;;5.50;99.90;;;;;;4840490;29;20582;-62
2022/11/25 05:25:25;;;;;;;16.43;8.37;;;5.50;99.90;;;;;;4842238;29;20480;-62
2022/11/25 05:28:16;;;;;;;15.03;8.03;;;5.50;99.90;;;;;;4840583;29;20480;-62
2022/11/25 05:30:45;;;;;;;13.27;7.33;;;5.50;99.90;;;;;;4841267;29;20502;-62
2022/11/25 05:33:13;;;;;;;13.63;7.90;;;5.50;99.90;;;;;;4838562;29;20483;-62
2022/11/25 05:35:41;;;;;;;12.47;8.30;;;5.50;99.90;;;;;;4823602;29;20992;-62
2022/11/25 05:38:09;;;;;;;14.77;7.77;;;5.50;99.90;;;;;;4825035;29;20487;-62
2022/11/25 05:40:39;;;;;;;16.67;7.47;;;5.50;99.90;;;;;;4823584;29;21074;-62
2022/11/25 05:43:12;;;;;;;17.30;7.53;;;5.50;99.90;;;;;;4823612;29;20337;-62
2022/11/25 05:45:41;;;;;;;15.80;7.17;;;5.50;99.90;;;;;;4840295;29;20499;-62
2022/11/25 05:48:11;;;;;;;16.00;8.23;;;5.50;99.90;;;;;;4834444;29;20230;-62
2022/11/25 05:50:39;;;;;;;13.27;7.37;;;5.50;99.90;;;;;;4841071;29;20300;-62
2022/11/25 05:53:17;;;;;;;17.23;7.23;;;5.50;99.90;;;;;;4841676;29;20476;-62
2022/11/25 05:55:56;;;;;;;15.27;7.70;;;5.50;99.90;;;;;;4841900;29;20472;-61
2022/11/25 05:58:44;;;;;;;12.20;6.90;;;5.60;99.90;;;;;;4841460;29;20872;-62
2022/11/25 06:01:13;;;;;;;16.37;6.70;;;5.60;99.90;;;;;;4841008;29;20496;-61
2022/11/25 06:03:42;;;;;;;14.70;7.00;;;5.50;99.90;;;;;;4841388;29;20472;-62
2022/11/25 06:06:11;;;;;;;12.70;7.13;;;5.60;99.90;;;;;;4831506;29;20508;-61
2022/11/25 06:08:40;;;;;;;14.93;7.67;;;5.60;99.90;;;;;;4847493;29;20706;-62
2022/11/25 06:11:12;;;;;;;17.63;7.27;;;5.60;99.90;;;;;;4841193;29;20266;-62
2022/11/25 06:13:40;;;;;;;17.07;7.67;;;5.60;99.90;;;;;;4842150;29;20499;-62
2022/11/25 06:16:10;;;;;;;11.27;6.83;;;5.60;99.90;;;;;;4856558;29;20470;-61
2022/11/25 06:18:40;;;;;;;13.17;6.90;;;5.60;99.90;;;;;;4840868;29;20487;-62
2022/11/25 06:21:09;;;;;;;13.10;7.17;;;5.60;99.90;;;;;;4841182;29;20512;-62
2022/11/25 06:23:38;;;;;;;15.30;7.17;;;5.60;99.90;;;;;;4841010;29;20483;-62
2022/11/25 06:26:08;;;;;;;14.57;6.10;;;5.60;99.90;;;;;;4842466;29;21016;-62
2022/11/25 06:28:37;;;;;;;11.97;6.50;;;5.60;99.90;;;;;;4841123;29;20602;-62
2022/11/25 06:31:07;;;;;;;13.50;6.80;;;5.60;99.90;;;;;;4841863;29;20884;-62
2022/11/25 06:33:41;;;;;;;15.17;5.90;;;5.60;99.90;;;;;;4840610;29;20487;-61
2022/11/25 06:36:15;;;;;;;13.77;6.60;;;5.60;99.90;;;;;;4841212;29;20504;-62
2022/11/25 06:38:44;;;;;;;13.47;6.20;;;5.60;99.90;;;;;;4842408;29;20253;-62
2022/11/25 06:41:13;;;;;;;16.73;6.90;;;5.70;99.90;;;;;;4841896;29;20476;-62
2022/11/25 06:43:42;;;;;;;13.57;6.43;;;5.70;99.90;;;;;;4838743;29;20491;-62
2022/11/25 06:46:12;;;;;;;12.43;6.03;;;5.70;99.90;;;;;;4833583;29;20845;-61
2022/11/25 06:48:41;;;;;;;15.60;6.40;;;5.70;99.90;;;;;;4833099;29;20238;-61
2022/11/25 06:51:11;;;;;;;13.50;6.17;;;5.70;99.90;;;;;;4838253;29;20488;-62
2022/11/25 06:53:40;;;;;;;11.37;6.30;;;5.70;99.90;;;;;;4834269;29;20563;-61
2022/11/25 06:56:11;;;;;;;12.27;6.63;;;5.70;99.90;;;;;;4830226;29;20238;-61
2022/11/25 06:58:39;;;;;;;11.50;6.40;;;5.70;99.90;;;;;;4831511;29;20731;-60
2022/11/25 07:01:13;;;;;;;10.33;6.40;;;5.70;99.90;;;;;;4829113;29;20251;-62
2022/11/25 07:03:41;;;;;;;12.70;6.30;;;5.70;99.90;;;;;;4825744;29;20231;-61
2022/11/25 07:06:11;;;;;;;13.00;6.43;;;5.70;99.90;;;;;;4826942;29;20839;-62
2022/11/25 07:08:39;;;;;;;14.87;5.90;;;5.70;99.90;;;;;;4825297;29;20236;-61
2022/11/25 07:11:10;;;;;;;16.37;6.63;;;5.80;99.90;;;;;;4825949;29;20499;-61
2022/11/25 07:13:38;;;;;;;15.70;6.70;;;5.80;99.90;;;;;;4828034;29;20491;-61
2022/11/25 07:16:10;;;;;;;13.67;5.83;;;5.80;99.90;;;;;;4828066;29;20234;-61
2022/11/25 07:18:39;;;;;;;15.00;5.80;;;5.80;99.90;;;;;;4826856;29;20231;-61
2022/11/25 07:21:09;;;;;;;11.27;5.60;;;5.80;99.90;;;;;;4829581;29;20718;-62
2022/11/25 07:23:38;;;;;;;10.53;5.77;;;5.80;99.90;;;;;;4831642;29;20488;-62
2022/11/25 07:26:08;;;;;;;14.33;5.90;;;5.80;99.90;;;;;;4831798;29;20525;-62
2022/11/25 07:28:36;;;;;;;8.17;5.43;;;5.80;99.90;;;;;;4828363;29;20494;-62
2022/11/25 07:31:06;;;;;;;10.80;5.57;;;5.80;99.90;;;;;;4827487;29;20622;-61
2022/11/25 07:33:58;;;;;;;12.47;5.87;;;5.80;99.90;;;;;;4828451;29;20587;-61
2022/11/25 07:36:27;;;;;;;12.90;6.27;;;5.90;99.90;;;;;;4830000;29;20837;-61
2022/11/25 07:38:55;;;;;;;16.77;6.83;;;5.90;99.90;;;;;;4826949;29;20499;-62
2022/11/25 07:41:25;;;;;;;16.33;6.50;;;5.90;99.90;;;;;;4830443;29;20238;-62
2022/11/25 07:43:55;;;;;;;10.47;6.33;;;5.90;99.90;;;;;;4840614;29;20551;-61
2022/11/25 07:46:26;;;;;;;13.50;6.27;;;5.90;99.90;;;;;;4848309;29;20240;-61
2022/11/25 07:48:58;;;;;;;15.93;6.70;;;5.90;99.90;;;;;;4826538;29;20243;-62
2022/11/25 07:51:28;;;;;;;11.93;5.87;;;5.90;99.90;;;;;;4829827;29;20272;-61
2022/11/25 07:53:58;;;;;;;14.77;5.90;;;5.80;99.90;;;;;;4830887;29;20283;-62
2022/11/25 07:56:27;;;;;;;11.67;5.83;;;5.90;99.90;;;;;;4830763;29;20239;-61
2022/11/25 07:58:56;;;;;;;14.70;5.73;;;5.90;99.90;;;;;;4827679;29;20263;-62
2022/11/25 08:01:24;;;;;;;11.80;5.27;;;5.90;99.90;;;;;;4828224;29;20254;-60
2022/11/25 08:03:53;;;;;;;10.07;5.53;;;5.90;99.90;;;;;;4831445;29;20235;-61
2022/11/25 08:06:24;;;;;;;11.50;5.70;;;5.90;99.90;;;;;;4831682;29;20236;-60
2022/11/25 08:08:54;;;;;;;13.17;5.73;;;5.90;99.90;;;;;;4844716;29;20242;-59
2022/11/25 08:11:25;;;;;;;12.23;6.17;;;5.90;99.90;;;;;;4843953;29;20239;-61
2022/11/25 08:13:54;;;;;;;15.13;7.03;;;5.90;99.90;;;;;;4846810;29;20730;-60
2022/11/25 08:16:25;;;;;;;13.67;5.67;;;5.90;99.90;;;;;;4845673;29;20245;-60
2022/11/25 08:18:54;;;;;;;11.90;5.60;;;5.90;99.90;;;;;;4844702;29;20243;-57
2022/11/25 08:21:24;;;;;;;15.50;5.50;;;5.90;99.90;;;;;;4844368;29;20715;-60
2022/11/25 08:23:53;;;;;;;11.60;5.40;;;5.90;99.90;;;;;;4846688;29;20242;-61
2022/11/25 08:26:24;;;;;;;11.07;5.30;;;5.90;99.90;;;;;;4846712;29;20238;-60
2022/11/25 08:28:53;;;;;;;11.10;5.67;;;6.00;99.90;;;;;;4845342;29;20268;-60
2022/11/25 08:31:23;;;;;;;13.67;5.57;;;6.00;99.90;;;;;;4843534;29;20235;-60
2022/11/25 08:33:52;;;;;;;9.70;5.50;;;6.00;99.90;;;;;;4846688;29;20239;-62
2022/11/25 08:36:23;;;;;;;11.00;5.37;;;6.00;99.90;;;;;;4838547;29;20287;-62
2022/11/25 08:38:54;;;;;;;9.37;5.13;;;6.00;99.90;;;;;;4834536;29;20499;-59
2022/11/25 08:41:25;;;;;;;12.03;5.73;;;6.00;99.90;;;;;;4836484;29;20239;-59
2022/11/25 08:43:53;;;;;;;11.43;5.00;;;6.00;99.90;;;;;;4834301;29;20503;-61
2022/11/25 08:46:24;;;;;;;15.33;5.40;;;6.00;99.90;;;;;;4838432;29;20239;-62
2022/11/25 08:48:52;;;;;;;13.53;5.53;;;6.00;99.90;;;;;;4842671;29;20541;-59
2022/11/25 08:51:24;;;;;;;12.03;5.40;;;6.10;99.90;;;;;;4845296;29;20246;-62
2022/11/25 08:53:52;;;;;;;14.80;5.70;;;6.20;99.90;;;;;;4847680;29;20706;-60
2022/11/25 08:56:22;;;;;;;16.00;5.90;;;6.10;99.90;;;;;;4845036;29;21025;-62
2022/11/25 08:58:54;;;;;;;13.53;5.80;;;6.20;99.90;;;;;;4841081;29;20370;-59
2022/11/25 09:01:23;;;;;;;12.43;5.80;;;6.20;99.90;;;;;;4845003;29;20245;-62
2022/11/25 09:03:54;;;;;;;12.27;5.87;;;6.20;99.90;;;;;;4842121;29;20254;-61
2022/11/25 09:06:24;;;;;;;14.53;6.10;;;6.20;99.90;;;;;;4846256;29;20901;-61
2022/11/25 09:08:55;;;;;;;14.80;5.97;;;6.20;99.90;;;;;;4842762;29;20219;-60
2022/11/25 09:11:23;;;;;;;12.70;5.70;;;6.20;99.90;;;;;;4844565;29;20786;-61
2022/11/25 09:13:51;;;;;;;14.07;5.70;;;6.20;99.90;;;;;;4843858;29;20214;-61
2022/11/25 09:16:20;;;;;;;16.40;6.23;;;6.20;99.90;;;;;;4844315;29;20210;-61
2022/11/25 09:18:48;;;;;;;11.90;5.97;;;6.20;99.90;;;;;;4842017;29;20455;-61
2022/11/25 09:21:24;;;;;;;15.43;5.80;;;6.20;99.90;;;;;;4832934;29;20225;-61
2022/11/25 09:23:53;;;;;;;11.03;5.87;;;6.30;99.90;;;;;;4832636;29;20872;-59
2022/11/25 09:26:24;;;;;;;15.27;6.27;;;6.30;99.90;;;;;;4833310;29;20306;-62
2022/11/25 09:28:53;;;;;;;13.23;5.87;;;6.20;99.90;;;;;;4834189;29;20467;-60
2022/11/25 09:31:21;;;;;;;15.80;5.80;;;6.30;99.90;;;;;;4834357;29;20263;-61
2022/11/25 09:33:49;;;;;;;15.23;6.30;;;6.30;99.90;;;;;;4840261;29;20523;-61
2022/11/25 09:36:19;;;;;;;15.67;6.23;;;6.30;99.90;;;;;;4842518;29;20204;-61
2022/11/25 09:38:48;;;;;;;13.73;6.73;;;6.30;99.90;;;;;;4831744;29;20207;-60
2022/11/25 09:47:30;;;;;;;13.63;5.93;;;6.40;99.90;;;;;;4793159;29;20220;-61
2022/11/25 09:50:10;;;;;;;11.93;5.70;;;6.40;99.90;;;;;;4841622;29;20213;-62
2022/11/25 09:52:49;;;;;;;14.83;5.73;;;6.40;99.90;;;;;;4844381;29;20228;-62
2022/11/25 09:55:22;;;;;;;14.47;7.00;;;6.40;99.90;;;;;;4846723;29;20210;-61
2022/11/25 09:57:59;;;;;;;13.80;5.87;;;6.40;99.90;;;;;;4844571;29;20763;-59
2022/11/25 10:00:37;;;;;;;12.03;6.00;;;6.40;99.90;;;;;;4831172;29;20215;-61
2022/11/25 10:03:13;;;;;;;14.83;6.07;;;6.40;99.90;;;;;;4836037;29;20215;-61
2022/11/25 10:05:46;;;;;;;14.10;5.83;;;6.40;99.90;;;;;;4837214;29;20624;-61
2022/11/25 10:08:18;;;;;;;13.90;5.73;;;6.40;99.90;;;;;;4836701;29;20226;-61
2022/11/25 10:10:51;;;;;;;13.17;5.57;;;6.40;99.90;;;;;;4842106;29;20679;-61
2022/11/25 10:13:26;;;;;;;12.10;5.93;;;6.40;99.90;;;;;;4834933;29;20578;-61
2022/11/25 10:15:59;;;;;;;14.17;6.33;;;6.60;99.90;;;;;;4834709;29;20285;-61
2022/11/25 10:18:34;;;;;;;16.27;6.93;;;6.70;99.90;;;;;;4837619;29;20202;-61
2022/11/25 10:21:03;;;;;;;12.30;6.20;;;6.60;99.90;;;;;;4832425;29;20225;-61
2022/11/25 10:23:34;;;;;;;16.27;7.23;;;6.70;99.90;;;;;;4832198;29;20204;-61
2022/11/25 10:26:13;;;;;;;15.83;6.63;;;6.70;99.90;;;;;;4835381;29;20280;-61
2022/11/25 10:28:45;;;;;;;14.70;6.60;;;6.70;99.90;;;;;;4836314;29;20223;-61
2022/11/25 10:31:18;;;;;;;17.63;7.40;;;6.80;99.90;;;;;;4837038;29;20215;-61
2022/11/25 10:33:48;;;;;;;15.53;8.07;;;6.80;99.90;;;;;;4835132;29;20311;-61
2022/11/25 10:36:18;;;;;;;15.03;6.97;;;6.80;99.90;;;;;;4830809;29;20708;-59
2022/11/25 10:38:55;;;;;;;16.37;8.60;;;6.90;99.90;;;;;;4830698;29;20851;-61
2022/11/25 10:41:28;;;;;;;14.70;8.03;;;6.80;99.90;;;;;;4835823;29;20231;-61
2022/11/25 10:43:56;;;;;;;12.13;7.20;;;6.90;99.90;;;;;;4832750;29;20254;-61
2022/11/25 10:46:36;;;;;;;17.37;7.43;;;6.90;99.90;;;;;;4834317;29;20664;-61
2022/11/25 10:49:30;;;;;;;11.83;5.67;;;6.90;99.90;;;;;;4835639;29;21072;-61
2022/11/25 10:51:58;;;;;;;13.33;6.23;;;6.90;99.90;;;;;;4832785;29;20218;-62
2022/11/25 10:54:28;;;;;;;15.07;6.90;;;7.00;99.90;;;;;;4844547;29;20298;-60
2022/11/25 10:56:59;;;;;;;14.17;6.83;;;7.00;99.90;;;;;;4839913;29;20621;-61
2022/11/25 10:59:29;;;;;;;16.30;6.60;;;7.00;99.90;;;;;;4831099;29;20219;-61
2022/11/25 11:02:17;;;;;;;16.37;6.63;;;7.10;99.90;;;;;;4833274;29;20203;-61
2022/11/25 11:04:56;;;;;;;11.97;6.03;;;7.00;99.90;;;;;;4830591;29;20243;-61
2022/11/25 11:07:25;;;;;;;14.60;6.20;;;7.00;99.90;;;;;;4836627;29;20210;-61
2022/11/25 11:09:54;;;;;;;14.63;6.07;;;7.10;99.90;;;;;;4841755;29;20219;-61
2022/11/25 11:12:25;;;;;;;12.20;6.63;;;7.10;99.90;;;;;;4844268;29;20219;-60
2022/11/25 11:15:13;;;;;;;16.80;6.57;;;7.10;99.90;;;;;;4843895;29;20556;-61
2022/11/25 11:17:41;;;;;;;12.03;6.33;;;7.20;99.90;;;;;;4843515;29;20207;-58
2022/11/25 11:20:22;;;;;;;16.33;7.40;;;7.30;99.90;;;;;;4840462;29;20231;-62
2022/11/25 11:22:56;;;;;;;15.17;6.30;;;7.30;99.90;;;;;;4845172;29;20626;-61
2022/11/25 11:25:33;;;;;;;16.63;8.20;;;7.50;99.90;;;;;;4843567;29;20302;-61
2022/11/25 11:28:23;;;;;;;14.50;7.03;;;7.60;99.90;;;;;;4841873;29;20799;-61
2022/11/25 11:30:57;;;;;;;16.77;6.97;;;7.60;99.90;;;;;;4842572;29;20218;-62
2022/11/25 11:33:33;;;;;;;12.53;6.67;;;7.70;99.90;;;;;;4843401;29;20279;-62
2022/11/25 11:36:10;;;;;;;12.10;6.33;;;7.80;99.90;;;;;;4844674;29;20234;-61
2022/11/25 11:38:48;;;;;;;15.73;7.10;;;7.80;99.90;;;;;;4837425;29;20327;-61
2022/11/25 11:41:33;;;;;;;17.10;7.53;;;7.80;99.90;;;;;;4832301;29;20684;-62
2022/11/25 11:44:16;;;;;;;13.40;7.33;;;7.90;99.90;;;;;;4832586;29;20306;-62
2022/11/25 11:47:04;;;;;;;11.40;6.70;;;7.90;99.90;;;;;;4828588;29;20208;-62
2022/11/25 11:49:47;;;;;;;12.07;7.00;;;7.90;99.90;;;;;;4832477;29;20267;-61
2022/11/25 11:52:24;;;;;;;15.93;7.53;;;8.00;99.90;;;;;;4835685;29;20238;-61
2022/11/25 11:54:54;;;;;;;16.90;8.20;;;7.90;99.90;;;;;;4835677;29;20203;-62
2022/11/25 11:57:34;;;;;;;14.70;7.33;;;7.90;99.90;;;;;;4840783;29;20704;-60
2022/11/25 12:00:09;;;;;;;12.33;7.40;;;8.00;99.90;;;;;;4841637;29;20211;-61
2022/11/25 12:02:57;;;;;;;16.50;7.37;;;7.90;99.90;;;;;;4840938;29;20200;-61
2022/11/25 12:05:29;;;;;;;13.17;7.17;;;7.80;99.90;;;;;;4844320;29;20214;-62
2022/11/25 12:08:05;;;;;;;13.40;7.00;;;7.90;99.90;;;;;;4846167;29;20572;-61
2022/11/25 12:10:38;;;;;;;14.17;6.27;;;7.90;99.90;;;;;;4844588;29;20219;-61
2022/11/25 12:13:16;;;;;;;17.53;7.00;;;7.90;99.90;;;;;;4846530;29;20249;-61
2022/11/25 12:15:51;;;;;;;17.50;6.77;;;7.90;99.90;;;;;;4846682;29;20214;-62
2022/11/25 12:18:31;;;;;;;14.23;7.63;;;8.00;99.90;;;;;;4844936;29;20671;-61
2022/11/25 12:21:02;;;;;;;13.90;6.80;;;8.00;99.90;;;;;;4844944;29;20220;-62
2022/11/25 12:23:41;;;;;;;10.67;6.30;;;7.90;99.90;;;;;;4846274;29;20211;-62
2022/11/25 12:26:14;;;;;;;10.73;5.80;;;7.90;99.90;;;;;;4842312;29;20210;-62
2022/11/25 12:28:48;;;;;;;16.10;6.87;;;7.90;99.90;;;;;;4835307;29;20572;-61
2022/11/25 12:31:23;;;;;;;14.27;6.40;;;8.00;99.90;;;;;;4838964;29;20950;-62
2022/11/25 12:34:02;;;;;;;18.53;6.60;;;7.90;99.90;;;;;;4835026;29;20241;-60
2022/11/25 12:36:35;;;;;;;14.50;7.10;;;8.00;99.90;;;;;;4838579;29;20210;-63
2022/11/25 12:39:05;;;;;;;13.57;5.83;;;8.10;99.90;;;;;;4836962;29;20223;-61
2022/11/25 12:41:42;;;;;;;14.53;6.53;;;8.10;99.90;;;;;;4847025;29;20575;-62
2022/11/25 12:44:17;;;;;;;16.57;7.07;;;8.20;99.90;;;;;;4846020;29;20271;-62
2022/11/25 12:46:49;;;;;;;11.77;6.13;;;8.20;99.90;;;;;;4843807;29;20658;-62
2022/11/25 12:49:20;;;;;;;16.30;6.47;;;8.20;99.90;;;;;;4834760;29;20212;-61
2022/11/25 12:52:17;;;;;;;15.17;6.57;;;8.20;99.90;;;;;;4835902;29;20212;-60
2022/11/25 12:55:05;;;;;;;15.00;6.27;;;8.20;99.90;;;;;;4827351;29;20267;-61
2022/11/25 12:58:01;;;;;;;14.77;7.00;;;8.30;99.90;;;;;;4834396;29;20220;-62
2022/11/25 13:00:36;;;;;;;13.20;7.53;;;8.40;99.90;;;;;;4846509;29;20203;-62
2022/11/25 13:03:34;;;;;;;14.63;7.87;;;8.40;99.90;;;;;;4847129;29;20202;-62
2022/11/25 13:06:43;;;;;;;13.33;6.30;;;8.40;99.90;;;;;;4846574;29;20219;-61
2022/11/25 13:09:28;;;;;;;15.80;7.23;;;8.50;99.90;;;;;;4823906;29;20288;-62
2022/11/25 13:12:06;;;;;;;13.60;7.20;;;8.40;99.90;;;;;;4844659;29;20675;-62
2022/11/25 13:18:42;;;;;;;12.87;6.60;;;8.50;99.90;;;;;;4845019;29;20671;-60
2022/11/25 13:21:18;;;;;;;11.93;6.40;;;8.40;99.90;;;;;;4845057;29;20283;-62
2022/11/25 13:23:49;;;;;;;15.83;8.40;;;8.50;99.90;;;;;;4845280;29;20260;-62
2022/11/25 13:26:46;;;;;;;10.47;6.73;;;8.40;99.90;;;;;;4845502;29;20219;-62
2022/11/25 13:30:03;;;;;;;16.47;8.03;;;8.50;99.90;;;;;;4843996;29;20320;-63